Time;durP1;ratioP1;P1;durP2;ratioP2;P2;SDS_P1;SDS_P2;PMS_P1;PMS_P2;Temp;Humidity;BMP_temperature;BMP_pressure;BME280_temperature;BME280_humidity;BME280_pressure;Samples;Min_cycle;Max_cycle;Signal;HPM_P1;HPM_P2
2022/12/01 00:01:04;;;;;;;61.53;26.15;;;;;;;0.10;100.00;101652.03;5096237;28;20020;-76
2022/12/01 00:03:31;;;;;;;60.03;26.98;;;;;;;0.10;100.00;101646.41;5092813;28;20495;-76
2022/12/01 00:06:01;;;;;;;62.22;25.08;;;;;;;0.12;100.00;101649.66;5092944;28;20107;-76
2022/12/01 00:08:27;;;;;;;60.15;24.67;;;;;;;0.13;100.00;101648.41;5092922;28;20032;-75
2022/12/01 00:10:52;;;;;;;58.08;24.95;;;;;;;0.11;100.00;101650.84;5092440;28;20040;-75
2022/12/01 00:13:18;;;;;;;60.05;25.33;;;;;;;0.13;100.00;101654.84;5094087;28;20027;-75
2022/12/01 00:15:43;;;;;;;58.95;24.80;;;;;;;0.15;100.00;101658.09;5092764;28;20432;-76
2022/12/01 00:18:09;;;;;;;57.95;26.73;;;;;;;0.19;100.00;101660.94;5095784;28;20039;-75
2022/12/01 00:20:35;;;;;;;60.35;24.13;;;;;;;0.17;100.00;101657.72;5096353;28;20445;-76
2022/12/01 00:23:01;;;;;;;58.20;24.83;;;;;;;0.17;100.00;101661.31;5096203;28;20121;-76
2022/12/01 00:25:27;;;;;;;56.45;24.88;;;;;;;0.16;100.00;101656.91;5095902;28;20453;-75
2022/12/01 00:27:52;;;;;;;59.75;25.55;;;;;;;0.14;100.00;101659.28;5095936;28;20430;-75
2022/12/01 00:30:19;;;;;;;56.22;25.33;;;;;;;0.13;100.00;101654.84;5095882;28;20461;-75
2022/12/01 00:32:45;;;;;;;56.10;23.85;;;;;;;0.14;100.00;101650.03;5095766;28;20081;-76
2022/12/01 00:35:11;;;;;;;56.13;23.42;;;;;;;0.12;100.00;101653.22;5094563;28;20038;-75
2022/12/01 00:37:37;;;;;;;54.70;24.70;;;;;;;0.14;100.00;101650.03;5095790;28;20457;-75
2022/12/01 00:40:04;;;;;;;56.67;22.92;;;;;;;0.10;100.00;101644.41;5095842;28;20023;-76
2022/12/01 00:42:29;;;;;;;57.17;25.65;;;;;;;0.04;100.00;101642.31;5095849;28;20520;-75
2022/12/01 00:44:54;;;;;;;70.10;27.23;;;;;;;0.05;100.00;101646.75;5077416;28;20131;-75
2022/12/01 00:47:20;;;;;;;65.47;24.90;;;;;;;0.05;100.00;101649.56;5095329;28;20035;-75
2022/12/01 00:49:45;;;;;;;50.85;23.77;;;;;;;0.04;100.00;101650.75;5095439;28;20372;-75
2022/12/01 00:52:12;;;;;;;56.42;23.60;;;;;;;0.03;100.00;101649.94;5094220;28;20024;-75
2022/12/01 00:54:38;;;;;;;55.78;22.67;;;;;;;-0.03;100.00;101650.72;5094282;28;20120;-75
2022/12/01 00:57:04;;;;;;;49.03;22.85;;;;;;;-0.09;100.00;101643.81;5094162;28;20436;-75
2022/12/01 00:59:29;;;;;;;59.72;26.20;;;;;;;-0.10;100.00;101639.38;5094053;28;20397;-75
2022/12/01 01:01:54;;;;;;;56.60;25.83;;;;;;;-0.07;100.00;101647.03;5093733;28;20473;-75
2022/12/01 01:04:20;;;;;;;51.55;22.13;;;;;;;-0.02;100.00;101639.06;5094364;28;20081;-76
2022/12/01 01:06:45;;;;;;;56.78;25.15;;;;;;;0.01;100.00;101641.13;5095442;28;20473;-76
2022/12/01 01:09:12;;;;;;;48.60;22.92;;;;;;;0.05;100.00;101644.75;5095025;28;20412;-75
2022/12/01 01:11:38;;;;;;;56.25;25.70;;;;;;;0.08;100.00;101637.53;5094628;28;20028;-75
2022/12/01 01:14:04;;;;;;;60.63;24.48;;;;;;;0.09;100.00;101639.97;5095070;28;20030;-75
2022/12/01 01:16:29;;;;;;;47.10;24.05;;;;;;;0.08;100.00;101634.72;5094925;28;20020;-75
2022/12/01 01:18:56;;;;;;;57.67;24.73;;;;;;;0.11;100.00;101639.59;5094919;28;20035;-75
2022/12/01 01:21:22;;;;;;;49.65;23.05;;;;;;;0.05;100.00;101636.34;5093937;28;20385;-76
2022/12/01 01:23:49;;;;;;;48.47;22.70;;;;;;;0.06;100.00;101637.13;5093708;28;20430;-75
2022/12/01 01:26:16;;;;;;;48.90;23.08;;;;;;;0.02;100.00;101637.09;5076644;28;20027;-75
2022/12/01 01:28:42;;;;;;;60.17;27.55;;;;;;;0.01;100.00;101641.13;5094736;28;20119;-76
2022/12/01 01:31:09;;;;;;;47.83;21.33;;;;;;;0.02;100.00;101633.50;5093660;28;20111;-76
2022/12/01 01:33:35;;;;;;;49.88;22.52;;;;;;;-0.03;100.00;101628.25;5076431;28;20067;-75
2022/12/01 01:36:01;;;;;;;47.03;20.83;;;;;;;-0.02;100.00;101632.63;5093562;28;20433;-75
2022/12/01 01:38:27;;;;;;;50.20;23.58;;;;;;;-0.09;100.00;101626.97;5094512;28;20059;-75
2022/12/01 01:40:52;;;;;;;51.22;23.42;;;;;;;-0.19;100.00;101614.44;5094454;28;20350;-74
2022/12/01 01:43:41;;;;;;;49.92;21.40;;;;;;;-0.15;100.00;101618.09;5093186;28;20065;-75
2022/12/01 01:46:10;;;;;;;46.55;21.23;;;;;;;-0.11;100.00;101616.09;5093488;28;20028;-75
2022/12/01 01:48:35;;;;;;;47.63;21.42;;;;;;;-0.08;100.00;101620.16;5094303;28;20054;-75
2022/12/01 01:51:01;;;;;;;46.78;20.30;;;;;;;-0.05;100.00;101614.56;5094355;28;20028;-74
2022/12/01 01:53:26;;;;;;;42.60;19.88;;;;;;;-0.03;100.00;101617.00;5094307;28;20380;-75
2022/12/01 01:55:52;;;;;;;49.55;20.52;;;;;;;0.01;100.00;101618.63;5093200;28;20020;-75
2022/12/01 01:58:18;;;;;;;54.40;21.98;;;;;;;0.01;100.00;101613.03;5090749;28;20031;-76
2022/12/01 02:00:44;;;;;;;49.42;23.27;;;;;;;0.02;100.00;101617.41;5090709;28;20484;-76
2022/12/01 02:03:12;;;;;;;48.95;23.50;;;;;;;-0.01;100.00;101611.78;5090748;28;20028;-75
2022/12/01 02:05:38;;;;;;;48.20;21.38;;;;;;;-0.04;100.00;101606.94;5090750;28;20106;-76
2022/12/01 02:08:04;;;;;;;54.92;23.05;;;;;;;-0.04;100.00;101598.53;5091850;28;20449;-75
2022/12/01 02:10:38;;;;;;;49.22;21.08;;;;;;;-0.01;100.00;101604.16;5091478;28;20047;-76
2022/12/01 02:13:13;;;;;;;52.42;21.63;;;;;;;0.04;100.00;101597.38;5090498;28;20392;-76
2022/12/01 02:16:10;;;;;;;52.90;23.00;;;;;;;0.08;100.00;101599.00;5091623;28;20153;-77
2022/12/01 02:18:44;;;;;;;45.17;21.70;;;;;;;0.13;100.00;101600.66;5091107;28;20063;-76
2022/12/01 02:21:37;;;;;;;44.58;21.73;;;;;;;0.15;100.00;101598.28;5092083;28;20028;-75
2022/12/01 02:24:36;;;;;;;54.10;22.95;;;;;;;0.11;100.00;101601.06;5092320;28;20035;-76
2022/12/01 02:27:20;;;;;;;51.38;22.33;;;;;;;0.14;100.00;101602.28;5092975;28;20027;-75
2022/12/01 02:30:05;;;;;;;48.40;22.08;;;;;;;0.16;100.00;101595.09;5092157;28;20086;-75
2022/12/01 02:32:55;;;;;;;49.40;22.95;;;;;;;0.19;100.00;101604.72;5092602;28;20024;-75
2022/12/01 02:35:42;;;;;;;47.67;22.33;;;;;;;0.20;100.00;101603.53;5093591;28;20031;-75
2022/12/01 02:38:22;;;;;;;47.05;21.58;;;;;;;0.21;100.00;101598.72;5093616;28;20107;-75
2022/12/01 02:40:56;;;;;;;48.72;24.27;;;;;;;0.21;100.00;101595.91;5093958;28;20024;-76
2022/12/01 02:43:31;;;;;;;51.45;21.58;;;;;;;0.21;100.00;101593.91;5075609;28;20410;-76
2022/12/01 02:46:06;;;;;;;49.72;22.38;;;;;;;0.22;100.00;101592.69;5093521;28;20031;-76
2022/12/01 02:48:36;;;;;;;45.45;21.67;;;;;;;0.20;100.00;101580.25;5093827;28;20043;-75
2022/12/01 02:51:29;;;;;;;50.28;21.48;;;;;;;0.24;100.00;101587.50;5092323;28;20354;-76
2022/12/01 02:53:56;;;;;;;57.75;21.85;;;;;;;0.21;100.00;101590.28;5085932;28;20036;-76
2022/12/01 02:56:22;;;;;;;55.78;23.08;;;;;;;0.22;100.00;101583.47;5075408;28;20023;-76
2022/12/01 02:58:48;;;;;;;45.45;21.90;;;;;;;0.19;100.00;101579.44;5093397;28;20465;-76
2022/12/01 03:01:28;;;;;;;52.03;21.42;;;;;;;0.21;100.00;101581.84;5093360;28;20041;-76
2022/12/01 03:04:12;;;;;;;46.33;22.00;;;;;;;0.21;100.00;101573.44;5093666;28;20028;-76
2022/12/01 03:06:56;;;;;;;48.97;23.60;;;;;;;0.23;100.00;101574.63;5094049;28;20083;-76
2022/12/01 03:09:39;;;;;;;42.10;21.13;;;;;;;0.20;100.00;101577.44;5093397;28;20079;-76
2022/12/01 03:12:29;;;;;;;48.53;21.98;;;;;;;0.17;100.00;101571.38;5092355;28;20024;-75
2022/12/01 03:15:06;;;;;;;51.35;21.77;;;;;;;0.16;100.00;101566.97;5093416;28;20024;-76
2022/12/01 03:17:39;;;;;;;46.50;21.17;;;;;;;0.20;100.00;101577.44;5093446;28;20105;-76
2022/12/01 03:20:13;;;;;;;48.03;20.23;;;;;;;0.19;100.00;101573.81;5092327;28;20034;-76
2022/12/01 03:22:45;;;;;;;45.88;20.80;;;;;;;0.19;100.00;101565.38;5075070;28;20115;-76
2022/12/01 03:25:11;;;;;;;45.47;21.77;;;;;;;0.20;100.00;101577.44;5092217;28;20101;-76
2022/12/01 03:27:40;;;;;;;50.70;22.63;;;;;;;0.19;100.00;101565.38;5094802;28;20085;-76
2022/12/01 03:30:09;;;;;;;45.65;20.92;;;;;;;0.22;100.00;101569.44;5096186;28;20027;-76
2022/12/01 03:33:08;;;;;;;49.90;21.27;;;;;;;0.24;100.00;101567.81;5097792;28;20032;-76
2022/12/01 03:35:41;;;;;;;45.20;20.40;;;;;;;0.24;100.00;101576.25;5095785;28;20020;-76
2022/12/01 03:38:12;;;;;;;49.58;23.77;;;;;;;0.23;100.00;101571.81;5096918;28;20028;-76
2022/12/01 03:40:38;;;;;;;42.35;21.80;;;;;;;0.20;100.00;101563.38;5097462;28;20062;-75
2022/12/01 03:43:09;;;;;;;48.38;22.35;;;;;;;0.22;100.00;101573.00;5096058;28;20476;-75
2022/12/01 03:45:47;;;;;;;51.70;23.83;;;;;;;0.25;100.00;101563.00;5096428;28;20472;-75
2022/12/01 03:48:12;;;;;;;53.53;24.08;;;;;;;0.25;100.00;101569.44;5097343;28;20032;-76
2022/12/01 03:51:04;;;;;;;51.80;23.55;;;;;;;0.26;100.00;101565.44;5096082;28;20469;-77
2022/12/01 03:53:56;;;;;;;48.13;21.85;;;;;;;0.26;100.00;101562.63;5085806;28;20058;-77
2022/12/01 03:56:24;;;;;;;45.13;21.92;;;;;;;0.27;100.00;101563.44;5096251;28;20109;-77
2022/12/01 03:58:51;;;;;;;49.75;21.13;;;;;;;0.28;100.00;101571.47;5095381;28;20027;-74
2022/12/01 04:01:17;;;;;;;45.33;21.88;;;;;;;0.30;100.00;101557.03;5095533;28;20034;-75
2022/12/01 04:03:44;;;;;;;46.85;22.90;;;;;;;0.28;100.00;101568.66;5095336;28;20099;-74
2022/12/01 04:06:09;;;;;;;44.63;21.75;;;;;;;0.32;100.00;101569.47;5095401;28;20520;-75
2022/12/01 04:08:36;;;;;;;45.47;22.05;;;;;;;0.30;100.00;101565.44;5095222;28;20063;-76
2022/12/01 04:12:28;;;;;;;54.05;22.77;;;;;;;0.35;100.00;101574.31;5094911;28;20447;-76
2022/12/01 04:13:47;;;;;;;52.38;21.98;;;;;;;0.34;100.00;101578.34;5096408;28;20089;-76
2022/12/01 04:16:12;;;;;;;52.85;22.27;;;;;;;0.37;100.00;101585.19;5096772;28;20028;-76
2022/12/01 04:18:37;;;;;;;50.35;22.38;;;;;;;0.35;100.00;101571.50;5096281;28;20028;-76
2022/12/01 04:21:03;;;;;;;50.72;22.83;;;;;;;0.37;100.00;101574.72;5095109;28;20019;-76
2022/12/01 04:26:12;;;;;;;51.65;23.30;;;;;;;0.37;100.00;101565.50;5096083;28;20035;-76
2022/12/01 04:28:37;;;;;;;48.42;22.95;;;;;;;0.41;100.00;101572.75;5094825;28;20028;-76
2022/12/01 04:31:03;;;;;;;47.03;22.38;;;;;;;0.43;100.00;101566.72;5096416;28;20028;-75
2022/12/01 04:33:28;;;;;;;48.05;22.70;;;;;;;0.45;100.00;101573.59;5096111;28;20114;-76
2022/12/01 04:35:58;;;;;;;54.35;23.77;;;;;;;0.47;100.00;101576.00;5095903;28;20044;-76
2022/12/01 04:38:23;;;;;;;52.53;24.25;;;;;;;0.46;100.00;101575.22;5095807;28;20024;-76
2022/12/01 04:40:49;;;;;;;52.50;24.45;;;;;;;0.47;100.00;101579.59;5096083;28;20371;-76
2022/12/01 04:43:14;;;;;;;52.63;24.00;;;;;;;0.46;100.00;101580.84;5095825;28;20028;-76
2022/12/01 04:45:40;;;;;;;55.58;25.73;;;;;;;0.45;100.00;101579.22;5095732;28;20031;-74
2022/12/01 04:48:05;;;;;;;52.13;22.63;;;;;;;0.47;100.00;101579.59;5095651;28;20023;-76
2022/12/01 04:50:30;;;;;;;42.45;22.27;;;;;;;0.49;100.00;101579.22;5095974;28;20034;-78
2022/12/01 04:52:56;;;;;;;56.70;25.02;;;;;;;0.49;100.00;101588.47;5095589;28;20016;-77
2022/12/01 04:55:21;;;;;;;51.13;23.70;;;;;;;0.49;100.00;101585.66;5095544;28;20056;-76
2022/12/01 04:57:47;;;;;;;50.08;23.42;;;;;;;0.50;100.00;101586.47;5095429;28;20024;-76
2022/12/01 05:00:33;;;;;;;53.05;24.00;;;;;;;0.50;100.00;101584.47;5095644;28;20024;-76
2022/12/01 05:02:59;;;;;;;53.25;24.48;;;;;;;0.48;100.00;101589.66;5095436;28;20149;-77
2022/12/01 05:05:25;;;;;;;56.92;25.38;;;;;;;0.49;100.00;101584.84;5095480;28;20536;-76
2022/12/01 05:07:50;;;;;;;53.95;25.17;;;;;;;0.52;100.00;101584.88;5095588;28;20016;-76
2022/12/01 05:10:17;;;;;;;58.03;26.48;;;;;;;0.53;100.00;101588.47;5094984;28;20047;-76
2022/12/01 05:12:45;;;;;;;50.92;24.35;;;;;;;0.54;100.00;101578.84;5093691;28;20027;-75
2022/12/01 05:15:11;;;;;;;52.88;23.17;;;;;;;0.56;100.00;101585.72;5094310;28;20047;-76
2022/12/01 05:17:37;;;;;;;56.17;25.85;;;;;;;0.57;100.00;101581.69;5095253;28;20044;-76
2022/12/01 05:22:51;;;;;;;58.03;25.10;;;;;;;0.58;100.00;101583.28;5094309;28;20035;-76
2022/12/01 05:25:18;;;;;;;51.10;23.52;;;;;;;0.58;100.00;101588.13;5095231;28;20476;-76
2022/12/01 05:27:45;;;;;;;57.90;24.75;;;;;;;0.58;100.00;101590.94;5077094;28;20032;-76
2022/12/01 05:30:11;;;;;;;50.15;24.90;;;;;;;0.55;100.00;101580.47;5095150;28;20020;-76
2022/12/01 05:32:37;;;;;;;57.80;27.05;;;;;;;0.58;100.00;101580.50;5093555;28;20032;-75
2022/12/01 05:35:04;;;;;;;60.50;26.58;;;;;;;0.59;100.00;101575.66;5076863;28;20456;-75
2022/12/01 05:37:32;;;;;;;59.45;24.80;;;;;;;0.63;100.00;101579.31;5094657;28;20035;-75
2022/12/01 05:40:06;;;;;;;55.13;24.90;;;;;;;0.64;100.00;101577.31;5094760;28;20460;-76
2022/12/01 05:42:32;;;;;;;54.10;25.65;;;;;;;0.67;100.00;101582.13;5094688;28;20024;-75
2022/12/01 05:44:58;;;;;;;58.70;26.55;;;;;;;0.69;100.00;101574.94;5093614;28;20435;-75
2022/12/01 05:47:24;;;;;;;60.17;28.23;;;;;;;0.71;100.00;101580.97;5094625;28;20362;-76
2022/12/01 05:49:51;;;;;;;64.43;28.08;;;;;;;0.69;100.00;101569.31;5094237;28;20103;-75
2022/12/01 05:52:18;;;;;;;56.25;26.17;;;;;;;0.72;100.00;101582.56;5093138;28;20024;-75
2022/12/01 05:54:45;;;;;;;60.95;26.70;;;;;;;0.66;100.00;101578.53;5093245;28;20073;-76
2022/12/01 05:57:12;;;;;;;69.63;28.05;;;;;;;0.66;100.00;101580.53;5076258;28;20506;-79
2022/12/01 05:59:38;;;;;;;64.07;29.08;;;;;;;0.70;100.00;101586.97;5094302;28;20103;-79
2022/12/01 06:02:04;;;;;;;65.45;27.00;;;;;;;0.68;100.00;101586.56;5094710;28;20114;-78
2022/12/01 06:04:30;;;;;;;61.20;27.85;;;;;;;0.69;100.00;101591.81;5097804;28;20020;-80
2022/12/01 06:06:56;;;;;;;54.60;26.88;;;;;;;0.68;100.00;101587.38;5097386;28;20027;-77
2022/12/01 06:09:23;;;;;;;58.47;26.70;;;;;;;0.73;100.00;101592.63;5093977;28;20048;-77
2022/12/01 06:11:56;;;;;;;65.95;27.73;;;;;;;0.75;100.00;101593.03;5095595;28;20024;-74
2022/12/01 06:14:23;;;;;;;59.15;25.88;;;;;;;0.73;100.00;101589.00;5094088;28;20028;-74
2022/12/01 06:16:49;;;;;;;52.03;25.48;;;;;;;0.76;100.00;101594.66;5094612;28;20019;-76
2022/12/01 06:19:16;;;;;;;53.42;25.80;;;;;;;0.75;100.00;101595.03;5095479;28;20479;-77
2022/12/01 06:21:41;;;;;;;66.15;25.60;;;;;;;0.75;100.00;101584.59;5094667;28;20056;-78
2022/12/01 06:24:07;;;;;;;65.88;28.30;;;;;;;0.76;100.00;101588.22;5094307;28;20062;-79
2022/12/01 06:26:37;;;;;;;55.33;26.60;;;;;;;0.80;100.00;101591.84;5091803;28;20024;-82
2022/12/01 06:29:09;;;;;;;63.60;26.65;;;;;;;0.84;100.00;101584.25;5093265;28;20040;-79
2022/12/01 06:31:35;;;;;;;50.17;25.00;;;;;;;0.87;100.00;101589.88;5089685;28;20062;-79
2022/12/01 06:34:00;;;;;;;54.35;25.83;;;;;;;0.91;100.00;101589.91;5093152;28;20063;-79
2022/12/01 06:36:25;;;;;;;55.38;24.60;;;;;;;0.97;100.00;101588.31;5075240;28;20392;-77
2022/12/01 06:38:51;;;;;;;60.80;25.58;;;;;;;1.03;100.00;101584.72;5093384;28;20047;-77
2022/12/01 06:41:16;;;;;;;52.50;25.00;;;;;;;1.11;100.00;101584.75;5093492;28;20020;-77
2022/12/01 06:43:43;;;;;;;53.38;24.50;;;;;;;1.11;100.00;101587.56;5092489;28;20031;-78
2022/12/01 06:46:08;;;;;;;56.63;25.42;;;;;;;1.17;100.00;101588.78;5093554;28;20322;-76
2022/12/01 06:48:34;;;;;;;74.00;32.08;;;;;;;1.19;100.00;101583.56;5093585;28;20023;-76
2022/12/01 06:51:01;;;;;;;61.67;28.65;;;;;;;1.22;100.00;101589.22;5075765;28;20375;-77
2022/12/01 06:53:29;;;;;;;66.85;30.05;;;;;;;1.26;100.00;101595.66;5092328;28;20032;-78
2022/12/01 06:56:04;;;;;;;62.47;28.63;;;;;;;1.28;100.00;101587.63;5093512;28;20540;-77
2022/12/01 06:58:31;;;;;;;58.72;26.35;;;;;;;1.34;100.00;101594.50;5092497;28;20031;-77
2022/12/01 07:00:58;;;;;;;61.13;26.80;;;;;;;1.38;100.00;101586.03;5075509;28;20023;-78
2022/12/01 07:03:23;;;;;;;62.15;27.27;;;;;;;1.42;100.00;101587.66;5093404;28;20103;-78
2022/12/01 07:05:58;;;;;;;64.28;28.23;;;;;;;1.46;100.00;101593.28;5079823;28;20052;-79
2022/12/01 07:08:26;;;;;;;72.20;33.83;;;;;;;1.48;100.00;101588.06;5080212;28;20028;-80
2022/12/01 07:11:06;;;;;;;65.70;27.77;;;;;;;1.39;100.00;101577.22;5079394;28;20046;-78
2022/12/01 07:13:33;;;;;;;64.05;28.42;;;;;;;1.52;100.00;101597.34;5096439;28;20073;-73
2022/12/01 07:16:08;;;;;;;56.88;25.67;;;;;;;1.56;100.00;101602.97;5096088;28;20032;-75
2022/12/01 07:18:34;;;;;;;65.35;27.40;;;;;;;1.59;100.00;101605.81;5097602;28;20047;-74
2022/12/01 07:21:01;;;;;;;59.58;27.08;;;;;;;1.56;100.00;101605.78;5095935;28;20472;-75
2022/12/01 07:23:28;;;;;;;64.28;27.75;;;;;;;1.53;100.00;101600.97;5097951;28;20024;-74
2022/12/01 07:26:13;;;;;;;59.15;27.65;;;;;;;1.56;100.00;101614.22;5096005;28;20054;-73
2022/12/01 07:28:39;;;;;;;63.00;27.27;;;;;;;1.58;100.00;101612.66;5097325;28;20024;-74
2022/12/01 07:31:16;;;;;;;64.70;29.88;;;;;;;1.57;100.00;101608.22;5093743;28;20060;-75
2022/12/01 07:33:42;;;;;;;75.70;32.00;;;;;;;1.57;100.00;101611.03;5084234;28;20039;-74
2022/12/01 07:36:09;;;;;;;77.95;34.13;;;;;;;1.62;100.00;101610.63;5078437;28;20040;-74
2022/12/01 07:38:36;;;;;;;65.65;29.27;;;;;;;1.68;100.00;101613.88;5095223;28;20591;-74
2022/12/01 07:41:10;;;;;;;81.03;31.50;;;;;;;1.71;100.00;101615.88;5095099;28;20020;-74
2022/12/01 07:43:37;;;;;;;73.88;30.65;;;;;;;1.74;100.00;101626.38;5077754;28;20027;-75
2022/12/01 07:46:14;;;;;;;76.78;32.00;;;;;;;1.80;100.00;101616.28;5094005;28;20035;-75
2022/12/01 07:48:40;;;;;;;77.97;32.13;;;;;;;1.86;100.00;101617.50;5076116;28;20062;-78
2022/12/01 07:51:07;;;;;;;70.70;28.88;;;;;;;1.89;100.00;101616.72;5096382;28;20028;-76
2022/12/01 07:53:34;;;;;;;66.10;28.55;;;;;;;1.94;100.00;101615.53;5113830;28;20008;-78
2022/12/01 07:56:00;;;;;;;63.20;27.80;;;;;;;2.02;100.00;101615.13;5118639;28;20020;-79
2022/12/01 07:58:27;;;;;;;60.65;27.90;;;;;;;2.08;100.00;101619.16;5078974;28;20032;-79
2022/12/01 08:00:53;;;;;;;63.55;27.48;;;;;;;2.15;100.00;101609.88;5110897;28;20036;-80
2022/12/01 08:03:20;;;;;;;58.95;26.80;;;;;;;2.21;100.00;101611.09;5117465;28;20024;-80
2022/12/01 08:05:57;;;;;;;60.15;27.20;;;;;;;2.24;100.00;101611.06;5106359;28;20036;-79
2022/12/01 08:08:23;;;;;;;66.28;27.17;;;;;;;2.27;100.00;101613.09;5102511;28;20058;-79
2022/12/01 08:11:06;;;;;;;66.50;29.60;;;;;;;2.32;100.00;101614.72;5095434;28;20064;-81
2022/12/01 08:13:32;;;;;;;69.50;29.70;;;;;;;2.41;100.00;101603.81;5096068;28;20027;-80
2022/12/01 08:16:05;;;;;;;57.03;26.70;;;;;;;2.44;100.00;101607.84;5095116;28;20111;-80
2022/12/01 08:18:33;;;;;;;57.17;26.73;;;;;;;2.42;100.00;101596.16;5094546;28;20496;-80
2022/12/01 08:20:59;;;;;;;58.92;24.70;;;;;;;2.47;100.00;101593.75;5078266;28;20040;-81
2022/12/01 08:23:25;;;;;;;55.55;27.25;;;;;;;2.63;100.00;101604.59;5096311;28;20046;-80
2022/12/01 08:25:52;;;;;;;61.30;26.17;;;;;;;2.66;100.00;101603.78;5096139;28;20024;-81
2022/12/01 08:28:19;;;;;;;49.83;23.77;;;;;;;2.64;100.00;101598.53;5078124;28;20028;-74
2022/12/01 08:30:49;;;;;;;52.67;26.13;;;;;;;2.67;100.00;101599.75;5094379;28;20051;-80
2022/12/01 08:33:15;;;;;;;54.03;25.05;;;;;;;2.64;100.00;101607.00;5078647;28;20088;-78
2022/12/01 08:35:41;;;;;;;56.17;26.27;;;;;;;2.63;100.00;101604.59;5095773;28;20040;-78
2022/12/01 08:38:06;;;;;;;55.75;25.58;;;;;;;2.57;100.00;101597.75;5093832;28;20086;-76
2022/12/01 08:40:31;;;;;;;53.80;27.08;;;;;;;2.57;100.00;101600.56;5094158;28;20488;-75
2022/12/01 08:42:58;;;;;;;61.55;26.40;;;;;;;2.55;100.00;101598.16;5095588;28;20027;-75
2022/12/01 08:45:24;;;;;;;53.00;24.77;;;;;;;2.55;100.00;101605.81;5094932;28;20461;-73
2022/12/01 08:47:52;;;;;;;56.17;25.40;;;;;;;2.56;100.00;101601.78;5095164;28;20028;-75
2022/12/01 08:50:26;;;;;;;59.67;25.20;;;;;;;2.58;100.00;101608.63;5076887;28;20020;-74
2022/12/01 08:52:53;;;;;;;61.30;24.00;;;;;;;2.60;100.00;101611.03;5077582;28;20028;-76
2022/12/01 08:55:19;;;;;;;60.47;26.92;;;;;;;2.59;100.00;101603.78;5094097;28;20032;-76
2022/12/01 08:57:44;;;;;;;56.85;25.95;;;;;;;2.60;100.00;101605.38;5077351;28;20032;-76
2022/12/01 09:00:11;;;;;;;79.47;26.15;;;;;;;2.58;100.00;101605.81;5094524;28;20032;-74
2022/12/01 09:02:36;;;;;;;54.88;26.05;;;;;;;2.58;100.00;101608.63;5093851;28;20040;-75
2022/12/01 09:05:02;;;;;;;61.78;26.95;;;;;;;2.61;100.00;101604.19;5076925;28;20054;-74
2022/12/01 09:07:28;;;;;;;51.97;24.33;;;;;;;2.61;100.00;101607.81;5060361;28;20032;-78
2022/12/01 09:09:54;;;;;;;54.58;25.33;;;;;;;2.58;100.00;101605.00;5094024;28;20136;-77
2022/12/01 09:12:19;;;;;;;51.50;25.10;;;;;;;2.63;100.00;101610.25;5094480;28;20111;-77
2022/12/01 09:14:48;;;;;;;55.25;26.20;;;;;;;2.63;100.00;101605.41;5094304;28;20024;-79
2022/12/01 09:17:15;;;;;;;56.33;25.88;;;;;;;2.66;100.00;101612.22;5094210;28;20077;-76
2022/12/01 09:19:41;;;;;;;54.30;26.42;;;;;;;2.69;100.00;101609.41;5093896;28;20073;-78
2022/12/01 09:22:08;;;;;;;57.20;26.00;;;;;;;2.70;100.00;101607.38;5093409;28;20027;-78
2022/12/01 09:24:34;;;;;;;56.55;24.00;;;;;;;2.70;100.00;101613.03;5094025;28;20028;-77
2022/12/01 09:27:02;;;;;;;54.25;23.75;;;;;;;2.67;100.00;101606.19;5076730;28;20036;-78
2022/12/01 09:29:29;;;;;;;54.38;25.75;;;;;;;2.67;100.00;101608.22;5093912;28;20496;-79
2022/12/01 09:31:56;;;;;;;53.80;26.05;;;;;;;2.65;100.00;101602.97;5095333;28;20030;-79
2022/12/01 09:34:21;;;;;;;61.35;26.33;;;;;;;2.66;100.00;101596.13;5094894;28;20032;-78
2022/12/01 09:36:47;;;;;;;52.08;26.27;;;;;;;2.71;100.00;101595.69;5093812;28;20028;-79
2022/12/01 09:39:15;;;;;;;60.60;25.92;;;;;;;2.75;100.00;101595.69;5093777;28;20032;-80
2022/12/01 09:41:52;;;;;;;53.08;26.30;;;;;;;2.75;100.00;101592.84;5093763;28;20476;-80
2022/12/01 09:44:42;;;;;;;59.75;26.45;;;;;;;2.75;100.00;101592.84;5093768;28;20020;-78
2022/12/01 09:47:25;;;;;;;61.50;27.15;;;;;;;2.77;100.00;101590.44;5091767;28;20431;-79
2022/12/01 09:50:13;;;;;;;51.30;24.58;;;;;;;2.78;100.00;101580.78;5093732;28;20487;-80
2022/12/01 09:52:57;;;;;;;53.78;25.10;;;;;;;2.84;100.00;101590.41;5079378;28;20024;-76
2022/12/01 09:55:24;;;;;;;53.17;26.63;;;;;;;2.82;100.00;101584.38;5094727;28;20024;-76
2022/12/01 09:57:53;;;;;;;54.90;25.85;;;;;;;2.85;100.00;101583.56;5076554;28;20105;-75
2022/12/01 10:00:24;;;;;;;57.78;25.23;;;;;;;2.91;100.00;101581.13;5076975;28;20031;-74
2022/12/01 10:03:23;;;;;;;56.65;25.88;;;;;;;2.94;100.00;101581.09;5093060;28;20050;-75
2022/12/01 10:06:03;;;;;;;54.92;24.70;;;;;;;2.96;100.00;101575.84;5094563;28;20103;-75
2022/12/01 10:08:33;;;;;;;51.78;25.20;;;;;;;2.99;100.00;101577.03;5093021;28;20043;-74
2022/12/01 10:11:39;;;;;;;55.28;24.70;;;;;;;3.02;100.00;101576.25;5075568;28;20058;-74
2022/12/01 10:14:12;;;;;;;52.72;24.45;;;;;;;2.94;100.00;101569.81;5093053;28;20496;-75
2022/12/01 10:20:21;;;;;;;58.92;25.13;;;;;;;2.93;100.00;101564.59;5094106;28;20056;-82
2022/12/01 10:23:17;;;;;;;55.05;25.73;;;;;;;2.93;100.00;101565.41;5095096;28;20036;-78
2022/12/01 10:25:59;;;;;;;53.47;24.95;;;;;;;2.96;100.00;101563.75;5093257;28;20127;-77
2022/12/01 10:28:53;;;;;;;59.03;26.45;;;;;;;3.01;100.00;101569.78;5093707;28;20016;-78
2022/12/01 10:31:44;;;;;;;51.15;23.48;;;;;;;3.04;100.00;101566.13;5094548;28;20473;-77
2022/12/01 10:34:15;;;;;;;49.00;24.08;;;;;;;3.01;100.00;101555.66;5097257;28;20416;-77
2022/12/01 10:36:40;;;;;;;51.97;25.70;;;;;;;3.06;100.00;101558.06;5076682;28;20119;-78
2022/12/01 10:39:28;;;;;;;45.75;22.20;;;;;;;3.04;100.00;101551.22;5094539;28;20070;-74
2022/12/01 10:42:31;;;;;;;52.70;23.50;;;;;;;3.00;100.00;101554.06;5094117;28;20411;-74
2022/12/01 10:45:01;;;;;;;43.22;21.98;;;;;;;3.02;100.00;101545.19;5092775;28;20024;-77
2022/12/01 10:47:27;;;;;;;51.70;23.55;;;;;;;3.01;100.00;101554.88;5092497;28;20376;-76
2022/12/01 10:49:55;;;;;;;54.60;24.50;;;;;;;2.99;100.00;101543.97;5092358;28;20036;-75
2022/12/01 10:52:40;;;;;;;52.17;22.88;;;;;;;2.98;100.00;101547.22;5092433;28;20496;-77
2022/12/01 10:55:28;;;;;;;51.83;25.23;;;;;;;3.02;100.00;101537.53;5093916;28;20024;-78
2022/12/01 10:58:13;;;;;;;57.05;25.90;;;;;;;3.02;100.00;101546.00;5092429;28;20051;-78
2022/12/01 11:00:40;;;;;;;51.25;26.63;;;;;;;3.06;100.00;101543.94;5092702;28;20102;-75
2022/12/01 11:03:18;;;;;;;47.97;23.85;;;;;;;3.11;100.00;101539.88;5077590;28;20445;-79
2022/12/01 11:05:51;;;;;;;54.83;25.88;;;;;;;3.13;100.00;101543.13;5096993;28;20062;-78
2022/12/01 11:08:52;;;;;;;43.67;22.80;;;;;;;3.18;100.00;101537.81;5093921;28;20168;-79
2022/12/01 11:11:28;;;;;;;50.25;23.35;;;;;;;3.17;100.00;101543.91;5088185;28;20505;-78
2022/12/01 11:13:55;;;;;;;50.47;24.13;;;;;;;3.22;100.00;101532.97;5092631;28;20032;-76
2022/12/01 11:16:52;;;;;;;48.45;24.60;;;;;;;3.32;100.00;101527.69;5092103;28;20093;-77
2022/12/01 11:19:35;;;;;;;46.95;23.05;;;;;;;3.29;100.00;101534.94;5088651;28;20384;-75
2022/12/01 11:22:41;;;;;;;57.08;25.30;;;;;;;3.29;100.00;101531.31;5092062;28;20031;-75
2022/12/01 11:25:18;;;;;;;46.58;22.27;;;;;;;3.29;100.00;101525.66;5079345;28;20301;-75
2022/12/01 11:27:56;;;;;;;41.38;19.88;;;;;;;3.28;100.00;101526.91;5092233;28;20032;-75
2022/12/01 11:30:23;;;;;;;45.65;20.50;;;;;;;3.21;100.00;101525.72;5092521;28;20028;-74
2022/12/01 11:33:11;;;;;;;48.35;22.90;;;;;;;3.19;100.00;101518.84;5092345;28;20527;-74
2022/12/01 11:35:56;;;;;;;51.25;23.55;;;;;;;3.19;100.00;101525.31;5091357;28;20126;-75